Marham, United Kingdom
Current Conditions -  °F | °C
As of 8:50 AM on Monday 24 Nov 2014 (Local Time) from EGYM Reporting Station
Haze Haze  
Wind Chill: 34°   Ceiling: Unl
Heat Index: 34°   Visibility: 4mi
Dew Point: 28°   Wind: 2mph
Humidity: 81%   Direction: 150°SSE
Pressure: 30.27"   Gusts: NA
Location:  52.66°N, 0.52°E
Report Text: EGYM 240850Z 15002KT 7000 HZ FEW120 01/M02 Q1025 WHT NOSIG
Loading
Personal Weather Stations






























Interactive Weather Map New forecast layout! Learn more

10-Day Weather Forecast

Advertisements
Track Severe Weather on mobile